Flight Track Log - Related Links

Times and Time Zones

All times are in EDT time to prevent confusion due to time zone crossing. See the OPT332 flight status page for this flight to view local times or setup timezone preferences in your user account.

Time Position Orientation Groundspeed Altitude Reporting Facility
EDT Latitude Longitude Course Direction KTS MPH feet Rate Location/Type
Tue 04:53:38 PM 34.2147 -119.1122 290° West 151 174 1,300  Level Los Angeles Center
Tue 04:54:33 PM 34.2314 -119.1669 290° West 211 243 3,000 1,133 Climbing Los Angeles Center
Tue 04:55:08 PM 34.2400 -119.2075 284° West 259 298 3,000 2,127 Level Los Angeles Center
Tue 04:56:23 PM 34.2333 -119.3022 265° West 245 282 6,900 2,190 Climbing Los Angeles Center
Tue 04:57:25 PM 34.2231 -119.3906 262° West 266 306 8,000 2,081 Climbing Los Angeles Center
Tue 04:58:27 PM 34.2075 -119.5006 260° West 276 318 11,200 3,194 Climbing Los Angeles Center
Tue 04:59:29 PM 34.2661 -119.5553 322° Northwest 276 318 14,600 3,048 Climbing Los Angeles Center
Tue 05:00:31 PM 34.3303 -119.6069 326° Northwest 277 319 17,500 2,806 Climbing Los Angeles Center
Tue 05:01:33 PM 34.3983 -119.6644 325° Northwest 292 336 20,400 2,400 Climbing Los Angeles Center
Tue 05:02:36 PM 34.4708 -119.7197 328° Northwest 303 349 22,500 2,256 Climbing Los Angeles Center
Tue 05:03:38 PM 34.5636 -119.7881 329° Northwest 321 369 25,100 2,177 Climbing Los Angeles Center
Tue 05:04:40 PM 34.6400 -119.8456 328° Northwest 334 384 27,000 1,839 Climbing Los Angeles Center
Tue 05:05:42 PM 34.7233 -119.9067 329° Northwest 349 402 28,900 1,452 Climbing Los Angeles Center
Tue 05:06:44 PM 34.8189 -119.9497 340° North 366 421 30,000 532 Climbing Los Angeles Center
Tue 05:07:46 PM 34.9192 -119.9981 338° Northwest 386 444 30,000 48 Level Los Angeles Center
Tue 05:08:48 PM 35.0400 -120.0558 339° North 391 450 30,100 774 Climbing Los Angeles Center
Tue 05:09:50 PM 35.1386 -120.1039 338° Northwest 383 441 31,600 2,081 Climbing Los Angeles Center
Tue 05:10:52 PM 35.2303 -120.1475 339° North 373 429 34,400 2,064 Climbing Los Angeles Center
Tue 05:11:55 PM 35.3203 -120.1894 339° North 354 407 35,900 1,200 Climbing Los Angeles Center
Tue 05:12:57 PM 35.4144 -120.2292 341° North 360 414 36,900 1,065 Climbing Los Angeles Center
Tue 05:13:59 PM 35.5342 -120.2658 346° North 376 433 38,100 1,065 Climbing Los Angeles Center
Tue 05:15:01 PM 35.6386 -120.2486 North 379 436 39,100 1,021 Climbing Los Angeles Center
Tue 05:15:33 PM 35.6997 -120.2403 North 378 435 39,700 574 Climbing Oakland Center
Tue 05:16:35 PM 35.8050 -120.2258 North 380 437 40,000 146 Climbing Oakland Center
Tue 05:17:36 PM 35.9164 -120.2086 North 399 459 40,000  Level Oakland Center
Tue 05:18:38 PM 36.0325 -120.1936 North 415 478 40,000  Level Oakland Center
Tue 05:19:39 PM 36.1494 -120.1753 North 422 486 40,000 488 Level Oakland Center
Tue 05:20:41 PM 36.2625 -120.1589 North 402 463 41,000 1,073 Climbing Oakland Center
Tue 05:21:42 PM 36.3722 -120.1408 North 396 456 42,200 976 Climbing Oakland Center
Tue 05:22:44 PM 36.5014 -120.1206 North 391 450 43,000 387 Climbing Oakland Center
Tue 05:23:46 PM 36.6131 -120.1047 North 400 460 43,000  Level Oakland Center
Tue 05:29:34 PM 37.2973 -120.0040 North 410 472 43,000  Level FlightAware ADS-B
Tue 05:35:07 PM 37.9175 -119.9080 North 404 465 43,000  Level FlightAware ADS-B
Tue 05:35:51 PM 37.9867 -119.8931 North 404 465 43,000  Level Salt Lake Center
Tue 05:36:53 PM 38.0967 -119.8689 10° North 401 461 43,000  Level Salt Lake Center
Tue 05:37:55 PM 38.2081 -119.8472 North 403 464 43,000  Level Salt Lake Center
Tue 05:38:57 PM 38.3194 -119.8233 10° North 406 467 43,000  Level Salt Lake Center
Tue 05:39:59 PM 38.4544 -119.7969 North 407 468 43,000  Level Salt Lake Center
Tue 05:40:49 PM 38.5431 -119.7775 10° North 405 466 43,000  Level Salt Lake Center
Tue 05:41:51 PM 38.6561 -119.7558 North 409 471 43,000  Level Salt Lake Center
Tue 05:42:53 PM 38.7692 -119.7381 North 408 470 43,000  Level Salt Lake Center
Tue 05:43:55 PM 38.8828 -119.7250 North 409 471 43,000  Level Salt Lake Center
Tue 05:44:57 PM 38.9958 -119.7100 North 407 468 43,000  Level Salt Lake Center
Tue 05:45:59 PM 39.1103 -119.6978 North 409 471 43,000  Level Salt Lake Center
Tue 05:47:01 PM 39.2469 -119.6822 North 408 470 43,000  Level Salt Lake Center
Tue 05:48:03 PM 39.3617 -119.6711 North 410 472 43,000  Level Salt Lake Center
Tue 05:49:05 PM 39.4753 -119.6586 North 409 471 43,000  Level Salt Lake Center
Tue 05:50:07 PM 39.5894 -119.6472 North 409 471 43,000  Level Salt Lake Center
Tue 05:51:09 PM 39.7042 -119.6375 North 409 471 43,000  Level Salt Lake Center
Tue 05:52:13 PM 39.8194 -119.6283 North 409 471 43,000  Level Seattle Center
Tue 05:53:13 PM 39.9328 -119.6181 North 411 473 43,000  Level Salt Lake Center
Tue 05:54:15 PM 40.0469 -119.6097 North 409 471 43,000  Level Salt Lake Center
Tue 05:55:17 PM 40.1819 -119.5981 North 406 467 43,000  Level Salt Lake Center
Tue 05:56:17 PM 40.2961 -119.5894 North 405 466 43,000  Level Seattle Center
Tue 05:57:18 PM 40.4089 -119.5794 North 405 466 43,000  Level Seattle Center
Tue 05:58:19 PM 40.5217 -119.5706 North 405 466 43,000  Level Seattle Center
Tue 05:59:20 PM 40.6336 -119.5494 North 407 468 43,000  Level Seattle Center
Tue 06:00:28 PM 40.7425 -119.5253 10° North 403 464 43,000  Level Salt Lake Center
Tue 06:01:30 PM 40.8758 -119.4911 11° North 405 466 43,000  Level Salt Lake Center
Tue 06:02:23 PM 40.9675 -119.4694 10° North 402 463 43,000  Level Seattle Center
Tue 06:03:24 PM 41.0761 -119.4436 10° North 399 459 43,000  Level Seattle Center
Tue 06:04:25 PM 41.1864 -119.4153 11° North 403 464 43,000  Level Seattle Center
Tue 06:05:26 PM 41.2958 -119.3883 10° North 402 463 43,000  Level Seattle Center
Tue 06:06:27 PM 41.4050 -119.3603 11° North 401 461 43,000  Level Seattle Center
Tue 06:07:28 PM 41.5144 -119.3342 10° North 399 459 43,000  Level Seattle Center
Tue 06:08:29 PM 41.6344 -119.3019 11° North 400 460 43,000  Level Seattle Center
Tue 06:09:30 PM 41.7406 -119.2750 11° North 402 463 43,000  Level Seattle Center
Tue 06:10:31 PM 41.8631 -119.2433 11° North 401 461 43,000  Level Seattle Center
Tue 06:11:32 PM 41.9683 -119.2167 11° North 401 461 43,000  Level Seattle Center
Tue 06:12:33 PM 42.0742 -119.1881 11° North 404 465 43,000  Level Seattle Center
Tue 06:13:35 PM 42.1956 -119.1578 10° North 397 457 43,000  Level Seattle Center
Tue 06:14:11 PM 42.2564 -119.1428 10° North 398 458 43,000  Level Seattle Center
Tue 06:14:54 PM 42.3356 -119.1214 11° North 400 460 43,000  Level Salt Lake Center
Tue 06:15:56 PM 42.4353 -119.0950 11° North 397 457 43,000  Level Salt Lake Center
Tue 06:16:58 PM 42.5425 -119.0661 11° North 395 455 43,000  Level Salt Lake Center
Tue 06:17:59 PM 42.6717 -119.0322 11° North 394 453 43,000  Level Salt Lake Center
Tue 06:19:01 PM 42.7783 -119.0056 10° North 391 450 43,000  Level Salt Lake Center
Tue 06:20:03 PM 42.8858 -118.9750 12° North 395 455 43,000  Level Salt Lake Center
Tue 06:21:05 PM 42.9919 -118.9472 11° North 390 449 43,000  Level Salt Lake Center
Tue 06:22:07 PM 43.0972 -118.9203 11° North 388 447 43,000  Level Salt Lake Center
Tue 06:23:21 PM 43.2381 -118.8828 11° North 390 449 43,000  Level Seattle Center
Tue 06:24:22 PM 43.3439 -118.8547 11° North 388 447 43,000  Level Seattle Center
Tue 06:25:12 PM 43.4367 -118.8297 11° North 389 448 43,000  Level Salt Lake Center
Tue 06:26:14 PM 43.5431 -118.8003 11° North 390 449 43,000  Level Salt Lake Center
Tue 06:27:16 PM 43.6483 -118.7714 11° North 388 447 43,000  Level Salt Lake Center
Tue 06:28:18 PM 43.7547 -118.7428 11° North 389 448 43,000  Level Salt Lake Center
Tue 06:29:19 PM 43.8622 -118.7128 11° North 395 455 43,000  Level Salt Lake Center
Tue 06:30:21 PM 43.9694 -118.6836 11° North 393 452 43,000  Level Salt Lake Center
Tue 06:31:23 PM 44.0969 -118.6481 11° North 391 450 43,000  Level Salt Lake Center
Tue 06:32:25 PM 44.2036 -118.6186 11° North 391 450 43,000  Level Salt Lake Center
Tue 06:33:26 PM 44.3097 -118.5886 11° North 391 450 43,000  Level Salt Lake Center
Tue 06:34:28 PM 44.4178 -118.5594 11° North 396 456 43,000  Level Salt Lake Center
Tue 06:35:30 PM 44.5247 -118.5283 12° North 394 453 43,000  Level Salt Lake Center
Tue 06:36:35 PM 44.6531 -118.4925 11° North 396 456 43,000  Level Seattle Center
Tue 06:37:36 PM 44.7600 -118.4633 11° North 394 453 43,000  Level Seattle Center
Tue 06:38:37 PM 44.8675 -118.4328 11° North 396 456 43,000  Level Seattle Center
Tue 06:39:38 PM 44.9733 -118.4025 11° North 392 451 43,000  Level Seattle Center
Tue 06:40:39 PM 45.0789 -118.3742 11° North 390 449 43,000  Level Seattle Center
Tue 06:41:40 PM 45.1850 -118.3439 11° North 389 448 43,000  Level Seattle Center
Tue 06:42:41 PM 45.2911 -118.3131 12° North 390 449 43,000  Level Seattle Center
Tue 06:43:42 PM 45.3947 -118.2817 12° North 386 444 43,000  Level Seattle Center
Tue 06:44:44 PM 45.5228 -118.2456 11° North 389 448 43,000  Level Seattle Center
Tue 06:45:45 PM 45.6275 -118.2133 12° North 389 448 43,000  Level Seattle Center
Tue 06:46:46 PM 45.7239 -118.1867 11° North 391 450 43,000  Level Seattle Center
Tue 06:47:47 PM 45.8300 -118.1539 12° North 389 448 43,000  Level Seattle Center
Tue 06:48:48 PM 45.9358 -118.1225 12° North 389 448 43,000  Level Seattle Center
Tue 06:49:49 PM 46.0642 -118.0844 12° North 393 452 43,000  Level Seattle Center
Tue 06:50:50 PM 46.1708 -118.0528 12° North 393 452 43,000  Level Seattle Center
Tue 06:51:51 PM 46.2761 -118.0211 12° North 389 448 43,000  Level Seattle Center
Tue 06:52:52 PM 46.3842 -117.9903 11° North 395 455 43,000  Level Seattle Center
Tue 06:53:53 PM 46.4906 -117.9589 11° North 392 451 43,000  Level Seattle Center
Tue 06:54:55 PM 46.5981 -117.9264 12° North 394 453 43,000  Level Seattle Center
Tue 06:55:56 PM 46.7050 -117.8931 12° North 395 455 43,000  Level Seattle Center
Tue 06:56:57 PM 46.8119 -117.8608 12° North 393 452 43,000  Level Seattle Center
Tue 07:02:43 PM 47.4514 -117.6620 12° North 398 458 43,000  Level FlightAware ADS-B
Tue 07:04:04 PM 47.5889 -117.6136 12° North 401 461 43,000  Level Seattle Center
Tue 07:05:06 PM 47.6892 -117.5367 27° Northeast 402 463 43,000  Level Seattle Center
Tue 07:06:07 PM 47.7900 -117.4617 27° Northeast 401 461 43,000  Level Seattle Center
Tue 07:07:08 PM 47.8911 -117.3850 27° Northeast 407 468 43,000  Level Seattle Center
Tue 07:08:09 PM 47.9914 -117.3097 27° Northeast 404 465 43,000  Level Seattle Center
Tue 07:09:10 PM 48.0908 -117.2339 27° Northeast 401 461 43,000  Level Seattle Center
Tue 07:10:11 PM 48.1897 -117.1581 27° Northeast 400 460 43,000  Level Seattle Center
Tue 07:11:12 PM 48.2900 -117.0831 26° Northeast 401 461 43,000  Level Seattle Center
Tue 07:12:13 PM 48.3894 -117.0061 27° Northeast 402 463 43,000  Level Seattle Center
Tue 07:13:14 PM 48.4903 -116.9292 27° Northeast 405 466 43,000  Level Seattle Center
Tue 07:14:15 PM 48.5894 -116.8517 27° Northeast 403 464 43,000  Level Seattle Center
Tue 07:15:16 PM 48.6906 -116.7750 27° Northeast 405 466 43,000  Level Seattle Center
Tue 07:16:17 PM 48.7908 -116.6956 28° Northeast 407 468 43,000  Level Seattle Center
Tue 07:17:18 PM 48.8983 -116.6111 27° Northeast 407 468 43,000  Level Seattle Center
Tue 07:17:52 PM 48.9500 -116.5167 50° Northeast 410 472 43,000  Level Vancouver Center
Tue 07:18:52 PM 49.0500 -116.4500 24° Northeast 410 472 43,000  Level Vancouver Center
Tue 07:19:52 PM 49.1667 -116.3667 25° Northeast 410 472 43,000  Level Vancouver Center
Tue 07:20:52 PM 49.2333 -116.2667 44° Northeast 410 472 43,000  Level Vancouver Center
Tue 07:21:52 PM 49.3500 -116.1833 25° Northeast 410 472 43,000  Level Vancouver Center
Tue 07:22:52 PM 49.4500 -116.0833 33° Northeast 410 472 43,000  Level Vancouver Center
Tue 07:23:52 PM 49.5500 -116.0167 23° Northeast 410 472 43,000  Level Vancouver Center
Tue 07:24:52 PM 49.6500 -115.9833 12° North 410 472 43,000 -200 Level Vancouver Center
Tue 07:25:52 PM 49.7500 -115.9167 23° Northeast 410 472 42,600 -600 Descending Vancouver Center
Tue 07:26:52 PM 49.8500 -115.8333 28° Northeast 400 460 41,800 -950 Descending Vancouver Center
Tue 07:27:52 PM 49.9667 -115.7667 20° North 380 437 40,700 -1,050 Descending Vancouver Center
Tue 07:28:52 PM 50.0333 -115.7333 18° North 370 426 39,700 -1,250 Descending Vancouver Center
Tue 07:29:52 PM 50.1500 -115.6333 29° Northeast 380 437 38,200 -1,469 Descending Vancouver Center
Tue 07:30:30 PM 50.1833 -115.6167 18° North 400 460 37,300 -1,531 Descending Edmonton Center
Tue 07:31:30 PM 50.2667 -115.4833 46° Northeast 400 460 35,700 -1,500 Descending Edmonton Center
Tue 07:32:30 PM 50.3167 -115.3667 56° Northeast 390 449 34,300 -1,500 Descending Edmonton Center
Tue 07:33:30 PM 50.3833 -115.2167 55° Northeast 400 460 32,700 -1,500 Descending Edmonton Center
Tue 07:34:30 PM 50.4667 -115.0833 45° Northeast 420 483 31,300 -1,600 Descending Edmonton Center
Tue 07:35:30 PM 50.5500 -114.9333 49° Northeast 430 495 29,500 -2,350 Descending Edmonton Center
Tue 07:36:30 PM 50.6167 -114.8000 52° Northeast 420 483 26,600 -3,000 Descending Edmonton Center
Tue 07:37:30 PM 50.6833 -114.6833 48° Northeast 410 472 23,500 -3,650 Descending Edmonton Center
Tue 07:38:30 PM 50.7500 -114.5333 55° Northeast 380 437 19,300 -4,000 Descending Edmonton Center
Tue 07:39:30 PM 50.8333 -114.4167 41° Northeast 360 414 15,500 -3,850 Descending Edmonton Center
Tue 07:40:30 PM 50.9167 -114.4000 North 300 345 11,600 -3,100 Descending Edmonton Center
Tue 07:41:30 PM 50.9833 -114.3667 17° North 290 334 9,300 -2,200 Descending Edmonton Center
Tue 07:42:30 PM 51.0500 -114.3000 32° Northeast 250 288 7,200 -1,700 Descending Edmonton Center
Tue 07:43:30 PM 51.0833 -114.2500 43° Northeast 180 207 5,900 -900 Descending Edmonton Center
Tue 07:44:30 PM 51.1000 -114.1667 72° East 170 196 5,400 -750 Descending Edmonton Center
Tue 07:45:30 PM 51.1167 -114.1167 62° Northeast 130 150 4,400 -850 Descending Edmonton Center
Tue 07:46:30 PM 51.1000 -114.0667 118° Southeast 120 138 3,700 -700 Descending Edmonton Center

Login

Don't have an account? Register now (free) for customized features, flight alerts, and more!